sensor_id;sensor_type;location;lat;lon;timestamp;P1;durP1;ratioP1;P2;durP2;ratioP2
65477;SDS011;53678;39.642;22.430;2023-05-10T00:00:47;15.50;;;9.95;;
65477;SDS011;53678;39.642;22.430;2023-05-10T00:03:12;17.73;;;10.82;;
65477;SDS011;53678;39.642;22.430;2023-05-10T00:05:38;15.68;;;9.50;;
65477;SDS011;53678;39.642;22.430;2023-05-10T00:08:04;12.48;;;9.43;;
65477;SDS011;53678;39.642;22.430;2023-05-10T00:10:30;13.32;;;9.60;;
65477;SDS011;53678;39.642;22.430;2023-05-10T00:12:56;15.27;;;9.23;;
65477;SDS011;53678;39.642;22.430;2023-05-10T00:15:21;14.25;;;10.07;;
65477;SDS011;53678;39.642;22.430;2023-05-10T00:17:47;13.90;;;9.18;;
65477;SDS011;53678;39.642;22.430;2023-05-10T00:20:12;11.38;;;8.68;;
65477;SDS011;53678;39.642;22.430;2023-05-10T00:22:38;13.85;;;9.45;;
65477;SDS011;53678;39.642;22.430;2023-05-10T00:25:04;13.23;;;9.27;;
65477;SDS011;53678;39.642;22.430;2023-05-10T00:27:31;12.80;;;8.65;;
65477;SDS011;53678;39.642;22.430;2023-05-10T00:29:57;12.70;;;8.68;;
65477;SDS011;53678;39.642;22.430;2023-05-10T00:32:22;13.38;;;9.70;;
65477;SDS011;53678;39.642;22.430;2023-05-10T00:34:48;13.68;;;9.45;;
65477;SDS011;53678;39.642;22.430;2023-05-10T00:37:15;13.30;;;10.02;;
65477;SDS011;53678;39.642;22.430;2023-05-10T00:39:41;14.95;;;10.93;;
65477;SDS011;53678;39.642;22.430;2023-05-10T00:42:06;13.80;;;9.63;;
65477;SDS011;53678;39.642;22.430;2023-05-10T00:44:32;12.88;;;9.70;;
65477;SDS011;53678;39.642;22.430;2023-05-10T00:46:58;12.68;;;9.02;;
65477;SDS011;53678;39.642;22.430;2023-05-10T00:49:24;11.32;;;8.25;;
65477;SDS011;53678;39.642;22.430;2023-05-10T00:51:50;11.43;;;8.20;;
65477;SDS011;53678;39.642;22.430;2023-05-10T00:54:16;12.82;;;8.35;;
65477;SDS011;53678;39.642;22.430;2023-05-10T00:56:42;12.02;;;9.52;;
65477;SDS011;53678;39.642;22.430;2023-05-10T00:59:14;12.57;;;9.25;;
65477;SDS011;53678;39.642;22.430;2023-05-10T01:01:43;13.77;;;9.25;;
65477;SDS011;53678;39.642;22.430;2023-05-10T01:04:13;13.15;;;8.70;;
65477;SDS011;53678;39.642;22.430;2023-05-10T01:06:41;11.00;;;8.73;;
65477;SDS011;53678;39.642;22.430;2023-05-10T01:09:07;11.40;;;9.10;;
65477;SDS011;53678;39.642;22.430;2023-05-10T01:11:36;12.70;;;8.80;;
65477;SDS011;53678;39.642;22.430;2023-05-10T01:14:05;12.70;;;7.60;;
65477;SDS011;53678;39.642;22.430;2023-05-10T01:16:32;11.20;;;8.50;;
65477;SDS011;53678;39.642;22.430;2023-05-10T01:19:01;11.55;;;7.70;;
65477;SDS011;53678;39.642;22.430;2023-05-10T01:35:34;7.97;;;6.10;;
65477;SDS011;53678;39.642;22.430;2023-05-10T01:43:33;8.35;;;5.53;;
65477;SDS011;53678;39.642;22.430;2023-05-10T01:46:09;8.85;;;5.47;;
65477;SDS011;53678;39.642;22.430;2023-05-10T01:48:40;10.13;;;5.55;;
65477;SDS011;53678;39.642;22.430;2023-05-10T01:51:17;9.50;;;5.38;;
65477;SDS011;53678;39.642;22.430;2023-05-10T01:53:49;7.40;;;5.30;;
65477;SDS011;53678;39.642;22.430;2023-05-10T01:56:19;10.15;;;5.20;;
65477;SDS011;53678;39.642;22.430;2023-05-10T01:58:49;9.60;;;5.55;;
65477;SDS011;53678;39.642;22.430;2023-05-10T02:01:17;7.65;;;4.97;;
65477;SDS011;53678;39.642;22.430;2023-05-10T02:03:46;10.30;;;5.00;;
65477;SDS011;53678;39.642;22.430;2023-05-10T02:06:13;6.70;;;4.70;;
65477;SDS011;53678;39.642;22.430;2023-05-10T02:08:41;8.15;;;5.03;;
65477;SDS011;53678;39.642;22.430;2023-05-10T02:11:10;7.90;;;5.03;;
65477;SDS011;53678;39.642;22.430;2023-05-10T02:13:38;7.95;;;4.45;;
65477;SDS011;53678;39.642;22.430;2023-05-10T02:16:05;10.68;;;5.03;;
65477;SDS011;53678;39.642;22.430;2023-05-10T02:18:32;7.57;;;4.63;;
65477;SDS011;53678;39.642;22.430;2023-05-10T02:21:01;8.55;;;4.78;;
65477;SDS011;53678;39.642;22.430;2023-05-10T02:23:27;10.07;;;5.15;;
65477;SDS011;53678;39.642;22.430;2023-05-10T02:25:55;8.20;;;4.95;;
65477;SDS011;53678;39.642;22.430;2023-05-10T02:28:23;8.27;;;4.30;;
65477;SDS011;53678;39.642;22.430;2023-05-10T02:30:51;9.43;;;4.95;;
65477;SDS011;53678;39.642;22.430;2023-05-10T02:33:19;9.77;;;5.22;;
65477;SDS011;53678;39.642;22.430;2023-05-10T02:35:46;10.48;;;4.43;;
65477;SDS011;53678;39.642;22.430;2023-05-10T02:38:13;9.95;;;5.20;;
65477;SDS011;53678;39.642;22.430;2023-05-10T02:40:40;13.07;;;5.20;;
65477;SDS011;53678;39.642;22.430;2023-05-10T02:43:09;11.27;;;5.13;;
65477;SDS011;53678;39.642;22.430;2023-05-10T02:45:38;9.70;;;4.90;;
65477;SDS011;53678;39.642;22.430;2023-05-10T02:48:05;10.77;;;5.07;;
65477;SDS011;53678;39.642;22.430;2023-05-10T02:50:32;11.15;;;5.13;;
65477;SDS011;53678;39.642;22.430;2023-05-10T02:53:05;10.90;;;5.25;;
65477;SDS011;53678;39.642;22.430;2023-05-10T02:55:36;11.82;;;4.68;;
65477;SDS011;53678;39.642;22.430;2023-05-10T02:58:04;10.52;;;5.20;;
65477;SDS011;53678;39.642;22.430;2023-05-10T03:00:30;12.68;;;5.25;;
65477;SDS011;53678;39.642;22.430;2023-05-10T03:02:56;9.90;;;4.88;;
65477;SDS011;53678;39.642;22.430;2023-05-10T03:05:22;9.57;;;4.50;;
65477;SDS011;53678;39.642;22.430;2023-05-10T03:07:48;12.70;;;5.03;;
65477;SDS011;53678;39.642;22.430;2023-05-10T03:10:15;6.90;;;4.82;;
65477;SDS011;53678;39.642;22.430;2023-05-10T03:18:28;10.48;;;4.90;;
65477;SDS011;53678;39.642;22.430;2023-05-10T03:20:59;9.10;;;4.82;;
65477;SDS011;53678;39.642;22.430;2023-05-10T03:24:02;11.20;;;4.72;;
65477;SDS011;53678;39.642;22.430;2023-05-10T03:26:30;11.48;;;5.15;;
65477;SDS011;53678;39.642;22.430;2023-05-10T03:29:05;7.97;;;4.72;;
65477;SDS011;53678;39.642;22.430;2023-05-10T03:31:32;13.35;;;5.43;;
65477;SDS011;53678;39.642;22.430;2023-05-10T03:33:59;7.35;;;4.63;;
65477;SDS011;53678;39.642;22.430;2023-05-10T03:36:26;10.63;;;5.18;;
65477;SDS011;53678;39.642;22.430;2023-05-10T03:38:52;9.35;;;5.07;;
65477;SDS011;53678;39.642;22.430;2023-05-10T03:41:19;11.73;;;5.47;;
65477;SDS011;53678;39.642;22.430;2023-05-10T03:43:46;9.15;;;4.82;;
65477;SDS011;53678;39.642;22.430;2023-05-10T03:46:13;8.48;;;5.35;;
65477;SDS011;53678;39.642;22.430;2023-05-10T03:48:39;11.52;;;4.82;;
65477;SDS011;53678;39.642;22.430;2023-05-10T03:51:06;9.70;;;4.75;;
65477;SDS011;53678;39.642;22.430;2023-05-10T03:53:31;13.35;;;5.57;;
65477;SDS011;53678;39.642;22.430;2023-05-10T03:55:57;8.95;;;4.68;;
65477;SDS011;53678;39.642;22.430;2023-05-10T03:58:23;13.90;;;5.28;;
65477;SDS011;53678;39.642;22.430;2023-05-10T04:00:50;11.05;;;5.00;;
65477;SDS011;53678;39.642;22.430;2023-05-10T04:03:16;12.18;;;5.55;;
65477;SDS011;53678;39.642;22.430;2023-05-10T04:05:42;9.82;;;4.80;;
65477;SDS011;53678;39.642;22.430;2023-05-10T04:08:08;9.40;;;4.88;;
65477;SDS011;53678;39.642;22.430;2023-05-10T04:10:37;10.75;;;4.35;;
65477;SDS011;53678;39.642;22.430;2023-05-10T04:13:03;9.07;;;4.22;;
65477;SDS011;53678;39.642;22.430;2023-05-10T04:15:29;6.63;;;4.07;;
65477;SDS011;53678;39.642;22.430;2023-05-10T04:17:56;6.88;;;4.28;;
65477;SDS011;53678;39.642;22.430;2023-05-10T04:20:22;9.30;;;4.10;;
65477;SDS011;53678;39.642;22.430;2023-05-10T04:22:48;9.63;;;4.25;;
65477;SDS011;53678;39.642;22.430;2023-05-10T04:25:13;8.93;;;4.18;;
65477;SDS011;53678;39.642;22.430;2023-05-10T04:27:39;10.43;;;4.45;;
65477;SDS011;53678;39.642;22.430;2023-05-10T04:30:05;9.93;;;4.28;;
65477;SDS011;53678;39.642;22.430;2023-05-10T04:32:31;8.00;;;4.78;;
65477;SDS011;53678;39.642;22.430;2023-05-10T04:34:57;9.55;;;4.60;;
65477;SDS011;53678;39.642;22.430;2023-05-10T04:37:23;10.98;;;4.63;;
65477;SDS011;53678;39.642;22.430;2023-05-10T04:39:49;8.88;;;4.68;;
65477;SDS011;53678;39.642;22.430;2023-05-10T04:42:15;9.73;;;4.60;;
65477;SDS011;53678;39.642;22.430;2023-05-10T04:44:40;5.40;;;4.13;;
65477;SDS011;53678;39.642;22.430;2023-05-10T04:47:06;10.23;;;4.40;;
65477;SDS011;53678;39.642;22.430;2023-05-10T04:49:32;10.68;;;4.75;;
65477;SDS011;53678;39.642;22.430;2023-05-10T04:51:57;8.82;;;4.22;;
65477;SDS011;53678;39.642;22.430;2023-05-10T04:54:23;10.52;;;4.80;;
65477;SDS011;53678;39.642;22.430;2023-05-10T04:56:49;12.13;;;4.93;;
65477;SDS011;53678;39.642;22.430;2023-05-10T04:59:15;9.27;;;4.38;;
65477;SDS011;53678;39.642;22.430;2023-05-10T05:01:40;11.52;;;4.75;;
65477;SDS011;53678;39.642;22.430;2023-05-10T05:04:06;10.05;;;4.32;;
65477;SDS011;53678;39.642;22.430;2023-05-10T05:06:32;10.68;;;4.15;;
65477;SDS011;53678;39.642;22.430;2023-05-10T05:08:58;8.77;;;4.57;;
65477;SDS011;53678;39.642;22.430;2023-05-10T05:11:23;7.28;;;4.55;;
65477;SDS011;53678;39.642;22.430;2023-05-10T05:13:50;13.05;;;5.13;;
65477;SDS011;53678;39.642;22.430;2023-05-10T05:16:16;11.60;;;4.43;;
65477;SDS011;53678;39.642;22.430;2023-05-10T05:18:42;9.75;;;4.88;;
65477;SDS011;53678;39.642;22.430;2023-05-10T05:21:17;8.90;;;4.53;;
65477;SDS011;53678;39.642;22.430;2023-05-10T05:23:43;8.60;;;4.63;;
65477;SDS011;53678;39.642;22.430;2023-05-10T05:26:09;7.65;;;4.68;;
65477;SDS011;53678;39.642;22.430;2023-05-10T05:28:36;6.80;;;3.97;;
65477;SDS011;53678;39.642;22.430;2023-05-10T05:31:03;10.60;;;4.75;;
65477;SDS011;53678;39.642;22.430;2023-05-10T05:33:30;5.53;;;3.90;;
65477;SDS011;53678;39.642;22.430;2023-05-10T05:35:56;14.10;;;4.35;;
65477;SDS011;53678;39.642;22.430;2023-05-10T05:38:22;8.40;;;3.35;;
65477;SDS011;53678;39.642;22.430;2023-05-10T05:40:48;8.15;;;3.25;;
65477;SDS011;53678;39.642;22.430;2023-05-10T05:43:14;8.95;;;3.35;;
65477;SDS011;53678;39.642;22.430;2023-05-10T05:45:40;9.13;;;3.10;;
65477;SDS011;53678;39.642;22.430;2023-05-10T05:48:06;9.93;;;3.20;;
65477;SDS011;53678;39.642;22.430;2023-05-10T05:50:32;8.27;;;3.10;;
65477;SDS011;53678;39.642;22.430;2023-05-10T05:52:58;8.32;;;3.20;;
65477;SDS011;53678;39.642;22.430;2023-05-10T05:55:23;12.70;;;3.67;;
65477;SDS011;53678;39.642;22.430;2023-05-10T05:57:51;11.43;;;4.07;;
65477;SDS011;53678;39.642;22.430;2023-05-10T06:00:16;9.60;;;3.33;;
65477;SDS011;53678;39.642;22.430;2023-05-10T06:02:44;10.13;;;3.63;;
65477;SDS011;53678;39.642;22.430;2023-05-10T06:05:10;4.70;;;3.05;;
65477;SDS011;53678;39.642;22.430;2023-05-10T06:07:35;8.02;;;3.83;;
65477;SDS011;53678;39.642;22.430;2023-05-10T06:10:01;6.78;;;2.97;;
65477;SDS011;53678;39.642;22.430;2023-05-10T06:12:28;5.75;;;3.45;;
65477;SDS011;53678;39.642;22.430;2023-05-10T06:14:53;7.68;;;2.78;;
65477;SDS011;53678;39.642;22.430;2023-05-10T06:17:19;7.28;;;3.72;;
65477;SDS011;53678;39.642;22.430;2023-05-10T06:19:45;9.43;;;3.80;;
65477;SDS011;53678;39.642;22.430;2023-05-10T06:22:10;9.35;;;3.00;;
65477;SDS011;53678;39.642;22.430;2023-05-10T06:24:36;10.57;;;2.80;;
65477;SDS011;53678;39.642;22.430;2023-05-10T06:27:02;9.88;;;2.60;;
65477;SDS011;53678;39.642;22.430;2023-05-10T06:29:29;7.25;;;2.42;;
65477;SDS011;53678;39.642;22.430;2023-05-10T06:31:54;8.77;;;2.60;;
65477;SDS011;53678;39.642;22.430;2023-05-10T06:34:20;7.28;;;3.17;;
65477;SDS011;53678;39.642;22.430;2023-05-10T06:36:46;5.03;;;2.35;;
65477;SDS011;53678;39.642;22.430;2023-05-10T06:39:11;16.58;;;3.67;;
65477;SDS011;53678;39.642;22.430;2023-05-10T06:41:37;6.75;;;2.30;;
65477;SDS011;53678;39.642;22.430;2023-05-10T06:44:03;8.45;;;2.95;;
65477;SDS011;53678;39.642;22.430;2023-05-10T06:46:29;8.50;;;2.80;;
65477;SDS011;53678;39.642;22.430;2023-05-10T06:48:55;3.65;;;2.03;;
65477;SDS011;53678;39.642;22.430;2023-05-10T06:51:20;6.35;;;2.47;;
65477;SDS011;53678;39.642;22.430;2023-05-10T06:53:46;14.98;;;2.70;;
65477;SDS011;53678;39.642;22.430;2023-05-10T06:56:12;16.55;;;2.50;;
65477;SDS011;53678;39.642;22.430;2023-05-10T06:58:38;9.68;;;2.83;;
65477;SDS011;53678;39.642;22.430;2023-05-10T07:01:04;6.55;;;2.30;;
65477;SDS011;53678;39.642;22.430;2023-05-10T07:03:30;4.72;;;2.20;;
65477;SDS011;53678;39.642;22.430;2023-05-10T07:06:03;5.75;;;2.25;;
65477;SDS011;53678;39.642;22.430;2023-05-10T07:08:30;4.93;;;1.88;;
65477;SDS011;53678;39.642;22.430;2023-05-10T07:11:04;6.78;;;2.25;;
65477;SDS011;53678;39.642;22.430;2023-05-10T07:13:32;7.53;;;2.60;;
65477;SDS011;53678;39.642;22.430;2023-05-10T07:15:59;6.00;;;1.77;;
65477;SDS011;53678;39.642;22.430;2023-05-10T07:18:25;9.38;;;2.05;;
65477;SDS011;53678;39.642;22.430;2023-05-10T07:20:51;6.00;;;1.67;;
65477;SDS011;53678;39.642;22.430;2023-05-10T07:23:17;4.35;;;1.73;;
65477;SDS011;53678;39.642;22.430;2023-05-10T07:25:47;4.15;;;1.83;;
65477;SDS011;53678;39.642;22.430;2023-05-10T07:28:14;5.22;;;1.90;;
65477;SDS011;53678;39.642;22.430;2023-05-10T07:30:40;8.65;;;2.05;;
65477;SDS011;53678;39.642;22.430;2023-05-10T07:33:06;5.97;;;2.20;;
65477;SDS011;53678;39.642;22.430;2023-05-10T07:35:34;8.68;;;2.25;;
65477;SDS011;53678;39.642;22.430;2023-05-10T07:38:00;3.30;;;1.40;;
65477;SDS011;53678;39.642;22.430;2023-05-10T07:40:26;5.47;;;2.13;;
65477;SDS011;53678;39.642;22.430;2023-05-10T07:42:52;2.78;;;1.58;;
65477;SDS011;53678;39.642;22.430;2023-05-10T07:45:17;5.93;;;2.13;;
65477;SDS011;53678;39.642;22.430;2023-05-10T07:47:43;4.05;;;1.58;;
65477;SDS011;53678;39.642;22.430;2023-05-10T07:50:09;4.30;;;1.63;;
65477;SDS011;53678;39.642;22.430;2023-05-10T07:52:35;6.13;;;2.00;;
65477;SDS011;53678;39.642;22.430;2023-05-10T07:55:00;5.15;;;2.05;;
65477;SDS011;53678;39.642;22.430;2023-05-10T07:57:26;3.33;;;1.60;;
65477;SDS011;53678;39.642;22.430;2023-05-10T07:59:52;5.43;;;1.85;;
65477;SDS011;53678;39.642;22.430;2023-05-10T08:02:17;5.95;;;2.30;;
65477;SDS011;53678;39.642;22.430;2023-05-10T08:04:43;5.22;;;2.10;;
65477;SDS011;53678;39.642;22.430;2023-05-10T08:07:09;5.97;;;1.98;;
65477;SDS011;53678;39.642;22.430;2023-05-10T08:09:35;5.68;;;1.92;;
65477;SDS011;53678;39.642;22.430;2023-05-10T08:12:01;4.65;;;1.75;;
65477;SDS011;53678;39.642;22.430;2023-05-10T08:14:28;6.40;;;2.88;;
65477;SDS011;53678;39.642;22.430;2023-05-10T08:16:54;3.88;;;1.90;;
65477;SDS011;53678;39.642;22.430;2023-05-10T08:19:20;5.35;;;1.60;;
65477;SDS011;53678;39.642;22.430;2023-05-10T08:21:46;6.50;;;1.75;;
65477;SDS011;53678;39.642;22.430;2023-05-10T08:24:12;3.70;;;1.60;;
65477;SDS011;53678;39.642;22.430;2023-05-10T08:26:38;7.75;;;1.75;;
65477;SDS011;53678;39.642;22.430;2023-05-10T08:29:04;3.55;;;1.63;;
65477;SDS011;53678;39.642;22.430;2023-05-10T08:31:30;6.45;;;1.70;;
65477;SDS011;53678;39.642;22.430;2023-05-10T08:33:55;4.25;;;1.50;;
65477;SDS011;53678;39.642;22.430;2023-05-10T08:36:21;4.18;;;1.88;;
65477;SDS011;53678;39.642;22.430;2023-05-10T08:38:52;4.90;;;1.90;;
65477;SDS011;53678;39.642;22.430;2023-05-10T08:41:22;5.05;;;1.73;;
65477;SDS011;53678;39.642;22.430;2023-05-10T08:43:50;5.45;;;1.80;;
65477;SDS011;53678;39.642;22.430;2023-05-10T08:46:18;2.75;;;1.58;;
65477;SDS011;53678;39.642;22.430;2023-05-10T08:48:45;5.30;;;1.50;;
65477;SDS011;53678;39.642;22.430;2023-05-10T08:51:18;6.32;;;1.92;;
65477;SDS011;53678;39.642;22.430;2023-05-10T08:53:47;7.68;;;2.00;;
65477;SDS011;53678;39.642;22.430;2023-05-10T08:56:15;6.82;;;2.58;;
65477;SDS011;53678;39.642;22.430;2023-05-10T08:58:41;2.95;;;1.88;;
65477;SDS011;53678;39.642;22.430;2023-05-10T09:01:07;5.50;;;1.77;;
65477;SDS011;53678;39.642;22.430;2023-05-10T09:03:34;5.60;;;1.90;;
65477;SDS011;53678;39.642;22.430;2023-05-10T09:06:03;5.90;;;2.20;;
65477;SDS011;53678;39.642;22.430;2023-05-10T09:08:30;7.80;;;2.17;;
65477;SDS011;53678;39.642;22.430;2023-05-10T09:10:56;7.80;;;2.35;;
65477;SDS011;53678;39.642;22.430;2023-05-10T09:13:23;4.63;;;1.90;;
65477;SDS011;53678;39.642;22.430;2023-05-10T09:15:50;8.70;;;2.05;;
65477;SDS011;53678;39.642;22.430;2023-05-10T09:18:17;3.45;;;1.45;;
65477;SDS011;53678;39.642;22.430;2023-05-10T09:20:42;4.80;;;1.70;;
65477;SDS011;53678;39.642;22.430;2023-05-10T09:23:08;5.40;;;1.90;;
65477;SDS011;53678;39.642;22.430;2023-05-10T09:25:34;4.68;;;2.00;;
65477;SDS011;53678;39.642;22.430;2023-05-10T09:28:00;6.32;;;1.70;;
65477;SDS011;53678;39.642;22.430;2023-05-10T09:30:26;5.03;;;1.80;;
65477;SDS011;53678;39.642;22.430;2023-05-10T09:32:54;3.65;;;1.90;;
65477;SDS011;53678;39.642;22.430;2023-05-10T09:35:21;7.22;;;1.83;;
65477;SDS011;53678;39.642;22.430;2023-05-10T09:37:50;6.07;;;2.20;;
65477;SDS011;53678;39.642;22.430;2023-05-10T09:40:19;5.40;;;2.20;;
65477;SDS011;53678;39.642;22.430;2023-05-10T09:42:56;5.78;;;1.85;;
65477;SDS011;53678;39.642;22.430;2023-05-10T09:45:33;6.03;;;2.33;;
65477;SDS011;53678;39.642;22.430;2023-05-10T09:48:00;6.55;;;2.55;;
65477;SDS011;53678;39.642;22.430;2023-05-10T09:50:28;6.63;;;2.40;;
65477;SDS011;53678;39.642;22.430;2023-05-10T09:52:58;7.15;;;2.50;;
65477;SDS011;53678;39.642;22.430;2023-05-10T09:55:26;4.03;;;1.75;;
65477;SDS011;53678;39.642;22.430;2023-05-10T09:58:03;6.90;;;1.98;;
65477;SDS011;53678;39.642;22.430;2023-05-10T10:00:34;8.80;;;2.33;;
65477;SDS011;53678;39.642;22.430;2023-05-10T10:03:01;6.47;;;2.38;;
65477;SDS011;53678;39.642;22.430;2023-05-10T10:05:31;7.18;;;2.75;;
65477;SDS011;53678;39.642;22.430;2023-05-10T10:08:04;5.93;;;2.03;;
65477;SDS011;53678;39.642;22.430;2023-05-10T10:10:32;10.20;;;1.80;;
65477;SDS011;53678;39.642;22.430;2023-05-10T10:12:58;4.50;;;1.83;;
65477;SDS011;53678;39.642;22.430;2023-05-10T10:15:26;8.07;;;2.35;;
65477;SDS011;53678;39.642;22.430;2023-05-10T10:17:52;5.63;;;2.10;;
65477;SDS011;53678;39.642;22.430;2023-05-10T10:20:20;6.05;;;2.13;;
65477;SDS011;53678;39.642;22.430;2023-05-10T10:22:47;2.70;;;1.65;;
65477;SDS011;53678;39.642;22.430;2023-05-10T10:25:16;3.72;;;2.15;;
65477;SDS011;53678;39.642;22.430;2023-05-10T10:27:56;3.78;;;1.80;;
65477;SDS011;53678;39.642;22.430;2023-05-10T10:35:43;6.53;;;1.88;;
65477;SDS011;53678;39.642;22.430;2023-05-10T10:38:12;6.60;;;1.67;;
65477;SDS011;53678;39.642;22.430;2023-05-10T10:40:38;5.65;;;1.90;;
65477;SDS011;53678;39.642;22.430;2023-05-10T10:43:23;6.18;;;2.03;;
65477;SDS011;53678;39.642;22.430;2023-05-10T10:48:39;6.10;;;3.58;;
65477;SDS011;53678;39.642;22.430;2023-05-10T10:51:05;39.30;;;18.00;;
65477;SDS011;53678;39.642;22.430;2023-05-10T10:53:31;6.13;;;2.30;;
65477;SDS011;53678;39.642;22.430;2023-05-10T10:56:07;3.47;;;1.30;;
65477;SDS011;53678;39.642;22.430;2023-05-10T10:58:34;2.17;;;1.33;;
65477;SDS011;53678;39.642;22.430;2023-05-10T11:06:30;4.65;;;1.90;;
65477;SDS011;53678;39.642;22.430;2023-05-10T11:08:57;3.97;;;1.83;;
65477;SDS011;53678;39.642;22.430;2023-05-10T11:11:23;6.15;;;1.92;;
65477;SDS011;53678;39.642;22.430;2023-05-10T11:13:49;4.93;;;1.40;;
65477;SDS011;53678;39.642;22.430;2023-05-10T11:19:04;2.83;;;1.50;;
65477;SDS011;53678;39.642;22.430;2023-05-10T11:21:33;3.75;;;1.45;;
65477;SDS011;53678;39.642;22.430;2023-05-10T11:24:12;6.93;;;2.00;;
65477;SDS011;53678;39.642;22.430;2023-05-10T11:26:40;4.88;;;1.60;;
65477;SDS011;53678;39.642;22.430;2023-05-10T11:29:05;7.28;;;1.80;;
65477;SDS011;53678;39.642;22.430;2023-05-10T11:31:31;4.70;;;1.63;;
65477;SDS011;53678;39.642;22.430;2023-05-10T11:33:57;4.60;;;2.10;;
65477;SDS011;53678;39.642;22.430;2023-05-10T11:36:25;6.28;;;1.90;;
65477;SDS011;53678;39.642;22.430;2023-05-10T11:38:57;6.20;;;2.40;;
65477;SDS011;53678;39.642;22.430;2023-05-10T11:41:23;5.15;;;2.45;;
65477;SDS011;53678;39.642;22.430;2023-05-10T11:43:53;7.55;;;2.00;;
65477;SDS011;53678;39.642;22.430;2023-05-10T11:46:21;7.03;;;3.13;;
65477;SDS011;53678;39.642;22.430;2023-05-10T11:48:55;7.63;;;2.65;;
65477;SDS011;53678;39.642;22.430;2023-05-10T11:51:35;4.22;;;2.35;;
65477;SDS011;53678;39.642;22.430;2023-05-10T11:54:02;8.52;;;3.42;;
65477;SDS011;53678;39.642;22.430;2023-05-10T11:56:34;4.93;;;2.50;;
65477;SDS011;53678;39.642;22.430;2023-05-10T11:59:00;6.65;;;2.63;;
65477;SDS011;53678;39.642;22.430;2023-05-10T12:01:28;8.43;;;2.70;;
65477;SDS011;53678;39.642;22.430;2023-05-10T12:03:55;10.90;;;2.60;;
65477;SDS011;53678;39.642;22.430;2023-05-10T12:06:26;7.45;;;2.92;;
65477;SDS011;53678;39.642;22.430;2023-05-10T12:08:53;8.13;;;2.70;;
65477;SDS011;53678;39.642;22.430;2023-05-10T12:11:19;8.73;;;3.30;;
65477;SDS011;53678;39.642;22.430;2023-05-10T12:13:46;9.88;;;3.40;;
65477;SDS011;53678;39.642;22.430;2023-05-10T12:16:16;6.50;;;3.03;;
65477;SDS011;53678;39.642;22.430;2023-05-10T12:18:44;7.75;;;3.08;;
65477;SDS011;53678;39.642;22.430;2023-05-10T12:21:10;7.72;;;3.20;;
65477;SDS011;53678;39.642;22.430;2023-05-10T12:23:40;11.27;;;3.38;;
65477;SDS011;53678;39.642;22.430;2023-05-10T12:26:08;4.38;;;2.90;;
65477;SDS011;53678;39.642;22.430;2023-05-10T12:28:35;9.02;;;3.08;;
65477;SDS011;53678;39.642;22.430;2023-05-10T12:31:02;7.55;;;3.60;;
65477;SDS011;53678;39.642;22.430;2023-05-10T12:33:35;8.80;;;3.03;;
65477;SDS011;53678;39.642;22.430;2023-05-10T12:36:08;6.85;;;4.30;;
65477;SDS011;53678;39.642;22.430;2023-05-10T12:38:36;5.90;;;2.85;;
65477;SDS011;53678;39.642;22.430;2023-05-10T12:41:05;5.47;;;2.05;;
65477;SDS011;53678;39.642;22.430;2023-05-10T12:43:32;4.15;;;2.10;;
65477;SDS011;53678;39.642;22.430;2023-05-10T12:46:04;4.13;;;1.85;;
65477;SDS011;53678;39.642;22.430;2023-05-10T12:48:31;7.00;;;3.00;;
65477;SDS011;53678;39.642;22.430;2023-05-10T12:50:57;6.97;;;3.10;;
65477;SDS011;53678;39.642;22.430;2023-05-10T12:53:24;5.80;;;2.95;;
65477;SDS011;53678;39.642;22.430;2023-05-10T12:55:51;6.72;;;2.85;;
65477;SDS011;53678;39.642;22.430;2023-05-10T12:58:20;6.45;;;2.92;;
65477;SDS011;53678;39.642;22.430;2023-05-10T13:00:46;6.70;;;2.90;;
65477;SDS011;53678;39.642;22.430;2023-05-10T13:03:11;4.47;;;2.90;;
65477;SDS011;53678;39.642;22.430;2023-05-10T13:05:37;8.18;;;3.95;;
65477;SDS011;53678;39.642;22.430;2023-05-10T13:08:05;8.27;;;3.60;;
65477;SDS011;53678;39.642;22.430;2023-05-10T13:10:32;6.50;;;3.20;;
65477;SDS011;53678;39.642;22.430;2023-05-10T13:12:58;9.70;;;3.45;;
65477;SDS011;53678;39.642;22.430;2023-05-10T13:15:24;9.52;;;2.92;;
65477;SDS011;53678;39.642;22.430;2023-05-10T13:17:51;11.60;;;3.10;;
65477;SDS011;53678;39.642;22.430;2023-05-10T13:20:18;11.00;;;4.88;;
65477;SDS011;53678;39.642;22.430;2023-05-10T13:22:44;12.60;;;3.78;;
65477;SDS011;53678;39.642;22.430;2023-05-10T13:25:10;8.63;;;2.75;;
65477;SDS011;53678;39.642;22.430;2023-05-10T13:27:37;7.60;;;3.30;;
65477;SDS011;53678;39.642;22.430;2023-05-10T13:30:03;5.13;;;2.80;;
65477;SDS011;53678;39.642;22.430;2023-05-10T13:32:29;7.82;;;3.15;;
65477;SDS011;53678;39.642;22.430;2023-05-10T13:34:56;8.95;;;3.05;;
65477;SDS011;53678;39.642;22.430;2023-05-10T13:37:22;8.93;;;3.17;;
65477;SDS011;53678;39.642;22.430;2023-05-10T13:39:48;6.13;;;3.13;;
65477;SDS011;53678;39.642;22.430;2023-05-10T13:42:13;4.20;;;2.83;;
65477;SDS011;53678;39.642;22.430;2023-05-10T13:44:39;10.77;;;3.25;;
65477;SDS011;53678;39.642;22.430;2023-05-10T13:47:05;7.40;;;3.05;;
65477;SDS011;53678;39.642;22.430;2023-05-10T13:49:31;10.55;;;3.42;;
65477;SDS011;53678;39.642;22.430;2023-05-10T13:51:57;5.82;;;3.35;;
65477;SDS011;53678;39.642;22.430;2023-05-10T13:54:23;5.43;;;2.88;;
65477;SDS011;53678;39.642;22.430;2023-05-10T13:56:49;9.23;;;3.13;;
65477;SDS011;53678;39.642;22.430;2023-05-10T13:59:15;9.05;;;3.88;;
65477;SDS011;53678;39.642;22.430;2023-05-10T14:01:41;11.40;;;3.80;;
65477;SDS011;53678;39.642;22.430;2023-05-10T14:04:07;6.47;;;3.10;;
65477;SDS011;53678;39.642;22.430;2023-05-10T14:06:35;7.47;;;3.60;;
65477;SDS011;53678;39.642;22.430;2023-05-10T14:09:02;12.20;;;4.70;;
65477;SDS011;53678;39.642;22.430;2023-05-10T14:11:29;6.72;;;3.58;;
65477;SDS011;53678;39.642;22.430;2023-05-10T14:13:54;13.45;;;4.28;;
65477;SDS011;53678;39.642;22.430;2023-05-10T14:16:21;9.57;;;4.25;;
65477;SDS011;53678;39.642;22.430;2023-05-10T14:18:46;12.77;;;4.45;;
65477;SDS011;53678;39.642;22.430;2023-05-10T14:21:12;8.88;;;3.83;;
65477;SDS011;53678;39.642;22.430;2023-05-10T14:23:38;8.90;;;3.83;;
65477;SDS011;53678;39.642;22.430;2023-05-10T14:26:05;12.63;;;4.47;;
65477;SDS011;53678;39.642;22.430;2023-05-10T14:28:31;11.50;;;4.53;;
65477;SDS011;53678;39.642;22.430;2023-05-10T14:30:57;9.48;;;4.07;;
65477;SDS011;53678;39.642;22.430;2023-05-10T14:33:23;9.30;;;4.35;;
65477;SDS011;53678;39.642;22.430;2023-05-10T14:35:48;8.88;;;4.25;;
65477;SDS011;53678;39.642;22.430;2023-05-10T14:38:14;9.18;;;4.13;;
65477;SDS011;53678;39.642;22.430;2023-05-10T14:40:40;9.63;;;4.25;;
65477;SDS011;53678;39.642;22.430;2023-05-10T14:43:05;7.00;;;4.10;;
65477;SDS011;53678;39.642;22.430;2023-05-10T14:45:31;10.90;;;4.28;;
65477;SDS011;53678;39.642;22.430;2023-05-10T14:47:57;7.32;;;3.85;;
65477;SDS011;53678;39.642;22.430;2023-05-10T14:50:24;6.97;;;3.58;;
65477;SDS011;53678;39.642;22.430;2023-05-10T14:52:49;10.48;;;4.32;;
65477;SDS011;53678;39.642;22.430;2023-05-10T14:55:15;7.38;;;3.67;;
65477;SDS011;53678;39.642;22.430;2023-05-10T14:57:41;7.38;;;4.03;;
65477;SDS011;53678;39.642;22.430;2023-05-10T15:00:07;9.80;;;4.03;;
65477;SDS011;53678;39.642;22.430;2023-05-10T15:02:34;12.18;;;4.47;;
65477;SDS011;53678;39.642;22.430;2023-05-10T15:05:00;7.25;;;4.10;;
65477;SDS011;53678;39.642;22.430;2023-05-10T15:07:25;7.78;;;4.45;;
65477;SDS011;53678;39.642;22.430;2023-05-10T15:09:51;8.50;;;3.90;;
65477;SDS011;53678;39.642;22.430;2023-05-10T15:12:17;10.13;;;4.47;;